sensor_id;sensor_type;location;lat;lon;timestamp;temperature;humidity
4058;DHT22;2044;48.692;9.020;2022-11-15T00:01:07;8.10;93.30
4058;DHT22;2044;48.692;9.020;2022-11-15T00:03:34;8.00;99.90
4058;DHT22;2044;48.692;9.020;2022-11-15T00:06:03;7.90;99.90
4058;DHT22;2044;48.692;9.020;2022-11-15T00:08:30;7.90;99.90
4058;DHT22;2044;48.692;9.020;2022-11-15T00:10:58;7.80;99.90
4058;DHT22;2044;48.692;9.020;2022-11-15T00:13:26;7.90;99.90
4058;DHT22;2044;48.692;9.020;2022-11-15T00:15:54;7.80;99.90
4058;DHT22;2044;48.692;9.020;2022-11-15T00:18:22;7.70;99.90
4058;DHT22;2044;48.692;9.020;2022-11-15T00:20:49;7.60;99.90
4058;DHT22;2044;48.692;9.020;2022-11-15T00:23:17;7.60;99.90
4058;DHT22;2044;48.692;9.020;2022-11-15T00:25:44;7.60;99.90
4058;DHT22;2044;48.692;9.020;2022-11-15T00:28:10;7.70;99.90
4058;DHT22;2044;48.692;9.020;2022-11-15T00:30:37;7.50;99.90
4058;DHT22;2044;48.692;9.020;2022-11-15T00:33:05;7.50;99.90
4058;DHT22;2044;48.692;9.020;2022-11-15T00:35:32;7.60;99.90
4058;DHT22;2044;48.692;9.020;2022-11-15T00:38:00;7.70;99.90
4058;DHT22;2044;48.692;9.020;2022-11-15T00:40:28;7.70;99.90
4058;DHT22;2044;48.692;9.020;2022-11-15T00:42:55;7.60;99.90
4058;DHT22;2044;48.692;9.020;2022-11-15T00:45:21;7.60;99.90
4058;DHT22;2044;48.692;9.020;2022-11-15T00:47:48;7.50;99.90
4058;DHT22;2044;48.692;9.020;2022-11-15T00:50:15;7.50;99.90
4058;DHT22;2044;48.692;9.020;2022-11-15T00:52:42;7.60;99.90
4058;DHT22;2044;48.692;9.020;2022-11-15T00:55:13;7.50;99.90
4058;DHT22;2044;48.692;9.020;2022-11-15T00:57:41;7.50;99.90
4058;DHT22;2044;48.692;9.020;2022-11-15T01:00:09;7.40;99.90
4058;DHT22;2044;48.692;9.020;2022-11-15T01:02:36;7.20;99.90
4058;DHT22;2044;48.692;9.020;2022-11-15T01:05:03;7.20;99.90
4058;DHT22;2044;48.692;9.020;2022-11-15T01:07:30;7.20;1.00
4058;DHT22;2044;48.692;9.020;2022-11-15T01:09:56;7.20;1.00
4058;DHT22;2044;48.692;9.020;2022-11-15T01:12:23;7.10;1.00
4058;DHT22;2044;48.692;9.020;2022-11-15T01:14:51;7.00;1.00
4058;DHT22;2044;48.692;9.020;2022-11-15T01:17:18;7.00;1.00
4058;DHT22;2044;48.692;9.020;2022-11-15T01:19:45;7.20;1.00
4058;DHT22;2044;48.692;9.020;2022-11-15T01:22:12;7.20;1.00
4058;DHT22;2044;48.692;9.020;2022-11-15T01:24:39;7.20;1.00
4058;DHT22;2044;48.692;9.020;2022-11-15T01:27:05;7.20;1.00
4058;DHT22;2044;48.692;9.020;2022-11-15T01:29:32;7.00;1.00
4058;DHT22;2044;48.692;9.020;2022-11-15T01:32:00;7.10;1.00
4058;DHT22;2044;48.692;9.020;2022-11-15T01:36:54;7.20;1.00
4058;DHT22;2044;48.692;9.020;2022-11-15T01:39:21;7.10;1.00
4058;DHT22;2044;48.692;9.020;2022-11-15T01:41:48;7.10;1.00
4058;DHT22;2044;48.692;9.020;2022-11-15T01:44:43;7.10;1.00
4058;DHT22;2044;48.692;9.020;2022-11-15T01:47:17;7.20;1.00
4058;DHT22;2044;48.692;9.020;2022-11-15T01:49:51;7.20;1.00
4058;DHT22;2044;48.692;9.020;2022-11-15T01:52:21;7.30;1.00
4058;DHT22;2044;48.692;9.020;2022-11-15T01:54:50;7.40;1.00
4058;DHT22;2044;48.692;9.020;2022-11-15T01:57:19;7.50;99.90
4058;DHT22;2044;48.692;9.020;2022-11-15T01:59:47;7.40;99.90
4058;DHT22;2044;48.692;9.020;2022-11-15T02:02:15;7.30;1.00
4058;DHT22;2044;48.692;9.020;2022-11-15T02:04:44;7.30;1.00
4058;DHT22;2044;48.692;9.020;2022-11-15T02:07:13;7.40;99.90
4058;DHT22;2044;48.692;9.020;2022-11-15T02:09:41;7.40;99.90
4058;DHT22;2044;48.692;9.020;2022-11-15T02:12:09;7.40;99.90
4058;DHT22;2044;48.692;9.020;2022-11-15T02:14:38;7.40;1.00
4058;DHT22;2044;48.692;9.020;2022-11-15T02:23:31;7.10;1.00
4058;DHT22;2044;48.692;9.020;2022-11-15T02:26:36;6.90;1.00
4058;DHT22;2044;48.692;9.020;2022-11-15T02:29:10;7.00;1.00
4058;DHT22;2044;48.692;9.020;2022-11-15T02:31:45;6.90;1.00
4058;DHT22;2044;48.692;9.020;2022-11-15T02:34:21;7.00;1.00
4058;DHT22;2044;48.692;9.020;2022-11-15T02:36:58;7.00;1.00
4058;DHT22;2044;48.692;9.020;2022-11-15T02:39:35;7.00;1.00
4058;DHT22;2044;48.692;9.020;2022-11-15T02:42:08;7.00;1.00
4058;DHT22;2044;48.692;9.020;2022-11-15T02:44:57;6.90;1.00
4058;DHT22;2044;48.692;9.020;2022-11-15T02:47:27;6.80;1.00
4058;DHT22;2044;48.692;9.020;2022-11-15T02:49:59;6.70;1.00
4058;DHT22;2044;48.692;9.020;2022-11-15T02:52:27;6.70;1.00
4058;DHT22;2044;48.692;9.020;2022-11-15T02:54:55;6.70;1.00
4058;DHT22;2044;48.692;9.020;2022-11-15T02:57:33;6.70;1.00
4058;DHT22;2044;48.692;9.020;2022-11-15T03:00:06;6.70;1.00
4058;DHT22;2044;48.692;9.020;2022-11-15T03:02:58;6.80;1.00
4058;DHT22;2044;48.692;9.020;2022-11-15T03:05:35;6.80;1.00
4058;DHT22;2044;48.692;9.020;2022-11-15T03:08:07;6.90;1.00
4058;DHT22;2044;48.692;9.020;2022-11-15T03:10:42;6.90;1.00
4058;DHT22;2044;48.692;9.020;2022-11-15T03:13:16;7.00;1.00
4058;DHT22;2044;48.692;9.020;2022-11-15T03:15:50;7.00;1.00
4058;DHT22;2044;48.692;9.020;2022-11-15T03:18:26;7.10;1.00
4058;DHT22;2044;48.692;9.020;2022-11-15T03:20:57;7.20;1.00
4058;DHT22;2044;48.692;9.020;2022-11-15T03:23:25;7.20;1.00
4058;DHT22;2044;48.692;9.020;2022-11-15T03:25:53;7.20;1.00
4058;DHT22;2044;48.692;9.020;2022-11-15T03:28:25;7.30;1.00
4058;DHT22;2044;48.692;9.020;2022-11-15T03:30:55;7.30;1.00
4058;DHT22;2044;48.692;9.020;2022-11-15T03:33:24;7.20;1.00
4058;DHT22;2044;48.692;9.020;2022-11-15T03:35:52;7.20;1.00
4058;DHT22;2044;48.692;9.020;2022-11-15T03:38:22;7.20;1.00
4058;DHT22;2044;48.692;9.020;2022-11-15T03:40:54;7.00;1.00
4058;DHT22;2044;48.692;9.020;2022-11-15T03:43:30;6.80;1.00
4058;DHT22;2044;48.692;9.020;2022-11-15T03:46:02;6.80;1.00
4058;DHT22;2044;48.692;9.020;2022-11-15T03:48:35;6.80;1.00
4058;DHT22;2044;48.692;9.020;2022-11-15T03:51:04;6.80;1.00
4058;DHT22;2044;48.692;9.020;2022-11-15T03:53:31;6.80;1.00
4058;DHT22;2044;48.692;9.020;2022-11-15T03:55:58;7.00;1.00
4058;DHT22;2044;48.692;9.020;2022-11-15T03:58:25;6.90;1.00
4058;DHT22;2044;48.692;9.020;2022-11-15T04:00:51;6.80;1.00
4058;DHT22;2044;48.692;9.020;2022-11-15T04:03:18;6.80;1.00
4058;DHT22;2044;48.692;9.020;2022-11-15T04:05:46;6.90;1.00
4058;DHT22;2044;48.692;9.020;2022-11-15T04:08:13;6.90;1.00
4058;DHT22;2044;48.692;9.020;2022-11-15T04:10:40;6.90;1.00
4058;DHT22;2044;48.692;9.020;2022-11-15T04:13:06;6.80;1.00
4058;DHT22;2044;48.692;9.020;2022-11-15T04:15:33;6.80;1.00
4058;DHT22;2044;48.692;9.020;2022-11-15T04:18:00;6.90;1.00
4058;DHT22;2044;48.692;9.020;2022-11-15T04:20:28;7.00;1.00
4058;DHT22;2044;48.692;9.020;2022-11-15T04:23:16;6.90;1.00
4058;DHT22;2044;48.692;9.020;2022-11-15T04:26:03;6.80;1.00
4058;DHT22;2044;48.692;9.020;2022-11-15T04:28:30;6.90;1.00
4058;DHT22;2044;48.692;9.020;2022-11-15T04:30:57;6.80;1.00
4058;DHT22;2044;48.692;9.020;2022-11-15T04:33:23;6.70;1.00
4058;DHT22;2044;48.692;9.020;2022-11-15T04:35:51;6.60;10.70
4058;DHT22;2044;48.692;9.020;2022-11-15T04:38:33;6.60;22.70
4058;DHT22;2044;48.692;9.020;2022-11-15T04:41:00;6.60;45.20
4058;DHT22;2044;48.692;9.020;2022-11-15T04:43:27;6.60;90.10
4058;DHT22;2044;48.692;9.020;2022-11-15T04:45:53;6.50;90.00
4058;DHT22;2044;48.692;9.020;2022-11-15T04:48:20;6.50;99.90
4058;DHT22;2044;48.692;9.020;2022-11-15T04:50:47;6.50;99.90
4058;DHT22;2044;48.692;9.020;2022-11-15T04:53:14;6.60;99.90
4058;DHT22;2044;48.692;9.020;2022-11-15T04:55:46;6.60;99.90
4058;DHT22;2044;48.692;9.020;2022-11-15T04:58:13;6.50;99.90
4058;DHT22;2044;48.692;9.020;2022-11-15T05:00:39;6.40;99.90
4058;DHT22;2044;48.692;9.020;2022-11-15T05:03:08;6.20;99.90
4058;DHT22;2044;48.692;9.020;2022-11-15T05:05:52;6.10;98.50
4058;DHT22;2044;48.692;9.020;2022-11-15T05:08:19;6.10;99.90
4058;DHT22;2044;48.692;9.020;2022-11-15T05:10:47;6.20;99.90
4058;DHT22;2044;48.692;9.020;2022-11-15T05:13:14;6.20;99.90
4058;DHT22;2044;48.692;9.020;2022-11-15T05:15:41;6.30;99.90
4058;DHT22;2044;48.692;9.020;2022-11-15T05:18:07;6.40;99.90
4058;DHT22;2044;48.692;9.020;2022-11-15T05:20:34;6.60;99.90
4058;DHT22;2044;48.692;9.020;2022-11-15T05:23:01;6.60;99.90
4058;DHT22;2044;48.692;9.020;2022-11-15T05:25:28;6.70;99.90
4058;DHT22;2044;48.692;9.020;2022-11-15T05:27:56;7.00;37.20
4058;DHT22;2044;48.692;9.020;2022-11-15T05:30:22;7.30;1.00
4058;DHT22;2044;48.692;9.020;2022-11-15T05:32:50;7.50;1.00
4058;DHT22;2044;48.692;9.020;2022-11-15T05:35:30;7.50;1.00
4058;DHT22;2044;48.692;9.020;2022-11-15T05:37:58;7.60;99.90
4058;DHT22;2044;48.692;9.020;2022-11-15T05:40:25;7.70;99.90
4058;DHT22;2044;48.692;9.020;2022-11-15T05:42:52;7.40;99.90
4058;DHT22;2044;48.692;9.020;2022-11-15T05:45:20;7.40;99.90
4058;DHT22;2044;48.692;9.020;2022-11-15T05:47:48;7.30;1.00
4058;DHT22;2044;48.692;9.020;2022-11-15T05:50:17;7.20;1.00
4058;DHT22;2044;48.692;9.020;2022-11-15T05:52:45;7.00;1.00
4058;DHT22;2044;48.692;9.020;2022-11-15T05:55:13;7.00;1.00
4058;DHT22;2044;48.692;9.020;2022-11-15T05:57:40;7.00;1.00
4058;DHT22;2044;48.692;9.020;2022-11-15T06:00:08;6.90;1.00
4058;DHT22;2044;48.692;9.020;2022-11-15T06:02:37;6.70;1.00
4058;DHT22;2044;48.692;9.020;2022-11-15T06:05:04;6.70;1.00
4058;DHT22;2044;48.692;9.020;2022-11-15T06:07:31;6.60;1.00
4058;DHT22;2044;48.692;9.020;2022-11-15T06:09:57;6.60;1.00
4058;DHT22;2044;48.692;9.020;2022-11-15T06:12:24;6.90;1.00
4058;DHT22;2044;48.692;9.020;2022-11-15T06:14:51;7.40;1.00
4058;DHT22;2044;48.692;9.020;2022-11-15T06:17:17;6.90;1.00
4058;DHT22;2044;48.692;9.020;2022-11-15T06:19:45;6.90;1.00
4058;DHT22;2044;48.692;9.020;2022-11-15T06:22:12;7.00;1.00
4058;DHT22;2044;48.692;9.020;2022-11-15T06:24:39;7.10;1.00
4058;DHT22;2044;48.692;9.020;2022-11-15T06:27:06;7.00;1.00
4058;DHT22;2044;48.692;9.020;2022-11-15T06:29:32;6.80;1.00
4058;DHT22;2044;48.692;9.020;2022-11-15T06:31:59;6.70;1.00
4058;DHT22;2044;48.692;9.020;2022-11-15T06:34:26;6.70;1.00
4058;DHT22;2044;48.692;9.020;2022-11-15T06:36:54;6.70;1.00
4058;DHT22;2044;48.692;9.020;2022-11-15T06:39:20;6.70;1.00
4058;DHT22;2044;48.692;9.020;2022-11-15T06:41:47;6.80;1.00
4058;DHT22;2044;48.692;9.020;2022-11-15T06:44:14;6.90;1.00
4058;DHT22;2044;48.692;9.020;2022-11-15T06:46:41;7.00;1.00
4058;DHT22;2044;48.692;9.020;2022-11-15T06:49:08;7.30;1.00
4058;DHT22;2044;48.692;9.020;2022-11-15T06:51:35;7.40;1.00
4058;DHT22;2044;48.692;9.020;2022-11-15T06:54:03;7.60;1.00
4058;DHT22;2044;48.692;9.020;2022-11-15T06:56:30;7.60;1.00
4058;DHT22;2044;48.692;9.020;2022-11-15T07:01:24;7.70;1.00
4058;DHT22;2044;48.692;9.020;2022-11-15T07:03:50;7.70;1.00
4058;DHT22;2044;48.692;9.020;2022-11-15T07:06:17;7.70;1.00
4058;DHT22;2044;48.692;9.020;2022-11-15T07:11:12;7.90;99.90
4058;DHT22;2044;48.692;9.020;2022-11-15T07:13:40;8.00;99.90
4058;DHT22;2044;48.692;9.020;2022-11-15T07:16:08;8.10;99.90
4058;DHT22;2044;48.692;9.020;2022-11-15T07:18:35;8.00;99.90
4058;DHT22;2044;48.692;9.020;2022-11-15T07:21:03;8.00;99.90
4058;DHT22;2044;48.692;9.020;2022-11-15T07:23:31;8.30;99.90
4058;DHT22;2044;48.692;9.020;2022-11-15T07:25:58;8.70;99.90
4058;DHT22;2044;48.692;9.020;2022-11-15T07:28:26;8.80;1.00
4058;DHT22;2044;48.692;9.020;2022-11-15T07:30:53;9.00;1.00
4058;DHT22;2044;48.692;9.020;2022-11-15T07:33:20;9.60;1.00
4058;DHT22;2044;48.692;9.020;2022-11-15T07:35:47;10.30;17.20
4058;DHT22;2044;48.692;9.020;2022-11-15T07:38:15;10.30;99.90
4058;DHT22;2044;48.692;9.020;2022-11-15T07:40:44;10.30;99.90
4058;DHT22;2044;48.692;9.020;2022-11-15T07:43:11;10.40;1.00
4058;DHT22;2044;48.692;9.020;2022-11-15T07:45:42;10.70;1.00
4058;DHT22;2044;48.692;9.020;2022-11-15T07:48:09;10.80;1.00
4058;DHT22;2044;48.692;9.020;2022-11-15T07:50:36;10.70;1.00
4058;DHT22;2044;48.692;9.020;2022-11-15T07:53:03;10.60;1.00
4058;DHT22;2044;48.692;9.020;2022-11-15T07:55:30;10.50;99.90
4058;DHT22;2044;48.692;9.020;2022-11-15T07:58:01;10.40;99.90
4058;DHT22;2044;48.692;9.020;2022-11-15T08:00:28;10.40;1.00
4058;DHT22;2044;48.692;9.020;2022-11-15T08:03:03;10.40;1.00
4058;DHT22;2044;48.692;9.020;2022-11-15T08:05:30;10.30;99.90
4058;DHT22;2044;48.692;9.020;2022-11-15T08:07:57;10.40;1.00
4058;DHT22;2044;48.692;9.020;2022-11-15T08:10:25;10.30;99.90
4058;DHT22;2044;48.692;9.020;2022-11-15T08:12:57;10.80;1.00
4058;DHT22;2044;48.692;9.020;2022-11-15T08:15:24;10.90;1.00
4058;DHT22;2044;48.692;9.020;2022-11-15T08:17:54;11.10;1.00
4058;DHT22;2044;48.692;9.020;2022-11-15T08:20:22;11.10;99.90
4058;DHT22;2044;48.692;9.020;2022-11-15T08:22:49;11.20;62.50
4058;DHT22;2044;48.692;9.020;2022-11-15T08:25:16;11.30;99.90
4058;DHT22;2044;48.692;9.020;2022-11-15T08:27:43;11.50;99.90
4058;DHT22;2044;48.692;9.020;2022-11-15T08:30:11;11.60;84.20
4058;DHT22;2044;48.692;9.020;2022-11-15T08:32:37;12.10;1.00
4058;DHT22;2044;48.692;9.020;2022-11-15T08:35:05;12.20;99.90
4058;DHT22;2044;48.692;9.020;2022-11-15T08:37:33;12.50;1.00
4058;DHT22;2044;48.692;9.020;2022-11-15T08:40:00;12.50;1.00
4058;DHT22;2044;48.692;9.020;2022-11-15T08:42:27;12.50;99.90
4058;DHT22;2044;48.692;9.020;2022-11-15T08:44:54;12.20;99.90
4058;DHT22;2044;48.692;9.020;2022-11-15T08:47:20;12.10;42.00
4058;DHT22;2044;48.692;9.020;2022-11-15T08:49:47;12.60;1.00
4058;DHT22;2044;48.692;9.020;2022-11-15T08:52:14;12.90;99.90
4058;DHT22;2044;48.692;9.020;2022-11-15T08:54:42;13.60;1.00
4058;DHT22;2044;48.692;9.020;2022-11-15T08:57:09;13.80;1.00
4058;DHT22;2044;48.692;9.020;2022-11-15T08:59:36;13.70;1.00
4058;DHT22;2044;48.692;9.020;2022-11-15T09:02:03;13.20;99.90
4058;DHT22;2044;48.692;9.020;2022-11-15T09:04:30;13.40;99.90
4058;DHT22;2044;48.692;9.020;2022-11-15T09:06:57;13.60;1.00
4058;DHT22;2044;48.692;9.020;2022-11-15T09:09:24;13.70;1.00
4058;DHT22;2044;48.692;9.020;2022-11-15T09:11:52;13.50;1.00
4058;DHT22;2044;48.692;9.020;2022-11-15T09:14:18;14.00;1.00
4058;DHT22;2044;48.692;9.020;2022-11-15T09:16:45;14.10;99.90
4058;DHT22;2044;48.692;9.020;2022-11-15T09:19:12;14.00;1.00
4058;DHT22;2044;48.692;9.020;2022-11-15T09:21:40;13.90;99.90
4058;DHT22;2044;48.692;9.020;2022-11-15T09:24:07;13.60;1.00
4058;DHT22;2044;48.692;9.020;2022-11-15T09:26:34;14.00;1.00
4058;DHT22;2044;48.692;9.020;2022-11-15T09:29:02;14.90;99.90
4058;DHT22;2044;48.692;9.020;2022-11-15T09:31:28;16.50;99.90
4058;DHT22;2044;48.692;9.020;2022-11-15T09:33:55;17.30;1.00
4058;DHT22;2044;48.692;9.020;2022-11-15T09:36:22;17.90;1.00
4058;DHT22;2044;48.692;9.020;2022-11-15T09:38:49;18.30;1.00
4058;DHT22;2044;48.692;9.020;2022-11-15T09:41:46;18.50;1.00
4058;DHT22;2044;48.692;9.020;2022-11-15T09:44:29;17.10;1.00
4058;DHT22;2044;48.692;9.020;2022-11-15T09:47:05;17.20;1.00
4058;DHT22;2044;48.692;9.020;2022-11-15T09:49:35;17.50;1.00
4058;DHT22;2044;48.692;9.020;2022-11-15T09:52:03;16.20;1.00
4058;DHT22;2044;48.692;9.020;2022-11-15T09:54:31;15.80;1.00
4058;DHT22;2044;48.692;9.020;2022-11-15T09:57:04;15.30;19.40
4058;DHT22;2044;48.692;9.020;2022-11-15T09:59:50;15.50;37.50
4058;DHT22;2044;48.692;9.020;2022-11-15T10:02:33;15.10;66.70
4058;DHT22;2044;48.692;9.020;2022-11-15T10:05:04;15.00;99.90
4058;DHT22;2044;48.692;9.020;2022-11-15T10:07:44;15.00;99.90
4058;DHT22;2044;48.692;9.020;2022-11-15T10:10:18;14.60;99.90
4058;DHT22;2044;48.692;9.020;2022-11-15T10:12:48;14.60;1.00
4058;DHT22;2044;48.692;9.020;2022-11-15T10:15:18;14.60;1.00
4058;DHT22;2044;48.692;9.020;2022-11-15T10:18:15;14.30;1.00
4058;DHT22;2044;48.692;9.020;2022-11-15T10:20:48;14.50;1.00
4058;DHT22;2044;48.692;9.020;2022-11-15T10:23:18;14.80;1.00
4058;DHT22;2044;48.692;9.020;2022-11-15T10:25:45;15.10;99.90
4058;DHT22;2044;48.692;9.020;2022-11-15T10:28:15;14.70;99.90
4058;DHT22;2044;48.692;9.020;2022-11-15T10:30:44;14.00;1.00
4058;DHT22;2044;48.692;9.020;2022-11-15T10:33:29;13.50;99.90
4058;DHT22;2044;48.692;9.020;2022-11-15T10:36:17;13.50;99.90
4058;DHT22;2044;48.692;9.020;2022-11-15T10:38:55;13.50;1.00
4058;DHT22;2044;48.692;9.020;2022-11-15T10:41:29;13.30;1.00
4058;DHT22;2044;48.692;9.020;2022-11-15T10:44:17;13.20;99.90
4058;DHT22;2044;48.692;9.020;2022-11-15T10:46:47;13.30;1.00
4058;DHT22;2044;48.692;9.020;2022-11-15T10:49:17;13.40;64.00
4058;DHT22;2044;48.692;9.020;2022-11-15T10:51:47;13.30;16.00
4058;DHT22;2044;48.692;9.020;2022-11-15T10:54:24;13.40;99.90
4058;DHT22;2044;48.692;9.020;2022-11-15T10:56:53;13.50;1.00
4058;DHT22;2044;48.692;9.020;2022-11-15T10:59:24;13.60;1.00
4058;DHT22;2044;48.692;9.020;2022-11-15T11:01:53;13.40;1.00
4058;DHT22;2044;48.692;9.020;2022-11-15T11:04:20;13.50;1.00
4058;DHT22;2044;48.692;9.020;2022-11-15T11:06:48;13.60;1.00
4058;DHT22;2044;48.692;9.020;2022-11-15T11:09:27;13.60;87.90
4058;DHT22;2044;48.692;9.020;2022-11-15T11:11:55;13.90;1.00
4058;DHT22;2044;48.692;9.020;2022-11-15T11:14:24;13.70;99.90
4058;DHT22;2044;48.692;9.020;2022-11-15T11:16:57;14.00;64.60
4058;DHT22;2044;48.692;9.020;2022-11-15T11:19:39;14.20;99.90
4058;DHT22;2044;48.692;9.020;2022-11-15T11:22:16;14.40;1.00
4058;DHT22;2044;48.692;9.020;2022-11-15T11:24:47;14.40;12.20
4058;DHT22;2044;48.692;9.020;2022-11-15T11:27:26;14.40;1.00
4058;DHT22;2044;48.692;9.020;2022-11-15T11:30:03;14.20;80.50
4058;DHT22;2044;48.692;9.020;2022-11-15T11:32:53;14.00;99.90
4058;DHT22;2044;48.692;9.020;2022-11-15T11:35:25;13.90;99.90
4058;DHT22;2044;48.692;9.020;2022-11-15T11:37:56;14.00;1.00
4058;DHT22;2044;48.692;9.020;2022-11-15T11:40:29;14.40;99.90
4058;DHT22;2044;48.692;9.020;2022-11-15T11:43:02;14.50;20.60
4058;DHT22;2044;48.692;9.020;2022-11-15T11:45:59;14.80;1.00
4058;DHT22;2044;48.692;9.020;2022-11-15T11:48:40;14.70;16.00
4058;DHT22;2044;48.692;9.020;2022-11-15T11:51:13;14.30;99.90
4058;DHT22;2044;48.692;9.020;2022-11-15T11:53:47;14.40;99.90
4058;DHT22;2044;48.692;9.020;2022-11-15T11:56:23;14.50;99.90
4058;DHT22;2044;48.692;9.020;2022-11-15T11:58:53;14.50;99.90
4058;DHT22;2044;48.692;9.020;2022-11-15T12:01:23;14.80;99.90
4058;DHT22;2044;48.692;9.020;2022-11-15T12:03:55;14.80;99.90
4058;DHT22;2044;48.692;9.020;2022-11-15T12:06:30;14.60;99.90
4058;DHT22;2044;48.692;9.020;2022-11-15T12:09:02;14.10;1.00
4058;DHT22;2044;48.692;9.020;2022-11-15T12:11:37;14.20;1.00
4058;DHT22;2044;48.692;9.020;2022-11-15T12:14:13;14.30;1.00
4058;DHT22;2044;48.692;9.020;2022-11-15T12:16:45;14.00;60.30
4058;DHT22;2044;48.692;9.020;2022-11-15T12:19:13;13.70;1.00
4058;DHT22;2044;48.692;9.020;2022-11-15T12:21:43;13.80;99.90
4058;DHT22;2044;48.692;9.020;2022-11-15T12:24:16;13.70;1.00
4058;DHT22;2044;48.692;9.020;2022-11-15T12:26:49;13.90;1.00
4058;DHT22;2044;48.692;9.020;2022-11-15T12:29:23;13.80;1.00
4058;DHT22;2044;48.692;9.020;2022-11-15T12:31:52;13.70;1.00
4058;DHT22;2044;48.692;9.020;2022-11-15T12:34:38;13.40;1.00
4058;DHT22;2044;48.692;9.020;2022-11-15T12:40:35;13.20;99.90
4058;DHT22;2044;48.692;9.020;2022-11-15T12:43:37;13.20;99.90
4058;DHT22;2044;48.692;9.020;2022-11-15T12:46:05;13.20;99.90
4058;DHT22;2044;48.692;9.020;2022-11-15T12:48:51;13.30;99.90
4058;DHT22;2044;48.692;9.020;2022-11-15T12:51:22;13.40;99.90
4058;DHT22;2044;48.692;9.020;2022-11-15T12:53:49;13.40;1.00
4058;DHT22;2044;48.692;9.020;2022-11-15T12:56:23;13.40;99.90
4058;DHT22;2044;48.692;9.020;2022-11-15T12:58:52;13.50;99.90
4058;DHT22;2044;48.692;9.020;2022-11-15T13:04:25;13.50;25.60
4058;DHT22;2044;48.692;9.020;2022-11-15T13:06:54;13.50;99.90
4058;DHT22;2044;48.692;9.020;2022-11-15T13:09:51;13.60;99.90
4058;DHT22;2044;48.692;9.020;2022-11-15T13:12:56;13.60;1.00
4058;DHT22;2044;48.692;9.020;2022-11-15T13:15:37;13.90;1.00
4058;DHT22;2044;48.692;9.020;2022-11-15T13:18:34;13.40;99.90
4058;DHT22;2044;48.692;9.020;2022-11-15T13:21:02;13.50;99.90
4058;DHT22;2044;48.692;9.020;2022-11-15T13:23:54;13.40;1.00
4058;DHT22;2044;48.692;9.020;2022-11-15T13:26:21;13.20;99.90
4058;DHT22;2044;48.692;9.020;2022-11-15T13:28:49;13.30;99.90
4058;DHT22;2044;48.692;9.020;2022-11-15T13:31:35;13.30;1.00
4058;DHT22;2044;48.692;9.020;2022-11-15T13:34:18;13.10;1.00
4058;DHT22;2044;48.692;9.020;2022-11-15T13:36:47;13.10;29.00
4058;DHT22;2044;48.692;9.020;2022-11-15T13:39:26;12.90;1.00
4058;DHT22;2044;48.692;9.020;2022-11-15T13:41:53;12.90;99.90
4058;DHT22;2044;48.692;9.020;2022-11-15T13:44:22;12.90;1.00
4058;DHT22;2044;48.692;9.020;2022-11-15T13:46:49;12.70;1.00
4058;DHT22;2044;48.692;9.020;2022-11-15T13:49:29;12.70;99.90
4058;DHT22;2044;48.692;9.020;2022-11-15T13:51:56;12.60;1.00
4058;DHT22;2044;48.692;9.020;2022-11-15T13:54:28;12.50;99.90
4058;DHT22;2044;48.692;9.020;2022-11-15T13:56:59;12.50;4.90
4058;DHT22;2044;48.692;9.020;2022-11-15T13:59:30;12.30;79.00
4058;DHT22;2044;48.692;9.020;2022-11-15T14:01:59;12.20;99.90
4058;DHT22;2044;48.692;9.020;2022-11-15T14:04:29;12.20;1.00
4058;DHT22;2044;48.692;9.020;2022-11-15T14:06:59;12.20;1.00
4058;DHT22;2044;48.692;9.020;2022-11-15T14:09:35;12.20;99.90
4058;DHT22;2044;48.692;9.020;2022-11-15T14:14:45;12.50;1.00
4058;DHT22;2044;48.692;9.020;2022-11-15T14:17:20;12.60;1.00
4058;DHT22;2044;48.692;9.020;2022-11-15T14:19:49;12.80;99.90
4058;DHT22;2044;48.692;9.020;2022-11-15T14:22:19;12.80;66.00
4058;DHT22;2044;48.692;9.020;2022-11-15T14:25:13;12.90;99.90
4058;DHT22;2044;48.692;9.020;2022-11-15T14:27:41;12.90;99.90
4058;DHT22;2044;48.692;9.020;2022-11-15T14:30:13;12.80;99.90
4058;DHT22;2044;48.692;9.020;2022-11-15T14:32:43;12.70;1.00
4058;DHT22;2044;48.692;9.020;2022-11-15T14:35:14;12.70;1.00
4058;DHT22;2044;48.692;9.020;2022-11-15T14:37:41;12.70;1.00
4058;DHT22;2044;48.692;9.020;2022-11-15T14:40:13;12.60;1.00
4058;DHT22;2044;48.692;9.020;2022-11-15T14:42:40;12.60;1.00
4058;DHT22;2044;48.692;9.020;2022-11-15T14:45:11;12.60;1.00
4058;DHT22;2044;48.692;9.020;2022-11-15T14:47:39;12.60;1.00
4058;DHT22;2044;48.692;9.020;2022-11-15T14:50:10;12.60;1.00
4058;DHT22;2044;48.692;9.020;2022-11-15T14:52:37;12.40;28.80
4058;DHT22;2044;48.692;9.020;2022-11-15T14:55:14;12.40;26.60
4058;DHT22;2044;48.692;9.020;2022-11-15T14:57:42;12.40;55.10
4058;DHT22;2044;48.692;9.020;2022-11-15T15:00:09;12.30;99.90
4058;DHT22;2044;48.692;9.020;2022-11-15T15:02:36;12.20;1.00
4058;DHT22;2044;48.692;9.020;2022-11-15T15:05:15;12.20;1.00
4058;DHT22;2044;48.692;9.020;2022-11-15T15:07:42;12.00;99.90
4058;DHT22;2044;48.692;9.020;2022-11-15T15:10:09;11.90;1.00
4058;DHT22;2044;48.692;9.020;2022-11-15T15:12:37;11.60;33.50
4058;DHT22;2044;48.692;9.020;2022-11-15T15:15:06;11.60;16.90
4058;DHT22;2044;48.692;9.020;2022-11-15T15:17:32;11.50;99.90
4058;DHT22;2044;48.692;9.020;2022-11-15T15:19:59;11.60;99.90
4058;DHT22;2044;48.692;9.020;2022-11-15T15:22:28;11.70;99.90
4058;DHT22;2044;48.692;9.020;2022-11-15T15:24:55;11.60;99.90
4058;DHT22;2044;48.692;9.020;2022-11-15T15:27:22;11.60;99.90
4058;DHT22;2044;48.692;9.020;2022-11-15T15:29:50;11.60;99.90
4058;DHT22;2044;48.692;9.020;2022-11-15T15:32:17;11.60;99.90
4058;DHT22;2044;48.692;9.020;2022-11-15T15:34:44;11.50;1.00
4058;DHT22;2044;48.692;9.020;2022-11-15T15:37:22;11.40;1.00
4058;DHT22;2044;48.692;9.020;2022-11-15T15:39:50;11.40;1.00
4058;DHT22;2044;48.692;9.020;2022-11-15T15:42:18;11.40;1.00
4058;DHT22;2044;48.692;9.020;2022-11-15T15:47:14;11.40;1.00
4058;DHT22;2044;48.692;9.020;2022-11-15T15:49:42;11.40;1.00
4058;DHT22;2044;48.692;9.020;2022-11-15T15:52:09;11.30;1.00
4058;DHT22;2044;48.692;9.020;2022-11-15T15:59:31;11.30;1.00
4058;DHT22;2044;48.692;9.020;2022-11-15T16:01:58;11.30;99.90
4058;DHT22;2044;48.692;9.020;2022-11-15T16:04:26;11.30;99.90
4058;DHT22;2044;48.692;9.020;2022-11-15T16:06:58;11.30;99.90
4058;DHT22;2044;48.692;9.020;2022-11-15T16:09:25;11.30;99.90
4058;DHT22;2044;48.692;9.020;2022-11-15T16:12:06;11.30;99.90
4058;DHT22;2044;48.692;9.020;2022-11-15T16:14:32;11.30;99.90
4058;DHT22;2044;48.692;9.020;2022-11-15T16:16:59;11.40;1.00
4058;DHT22;2044;48.692;9.020;2022-11-15T16:19:27;11.50;1.00
4058;DHT22;2044;48.692;9.020;2022-11-15T16:21:54;11.50;99.90
4058;DHT22;2044;48.692;9.020;2022-11-15T16:24:21;11.50;99.90
4058;DHT22;2044;48.692;9.020;2022-11-15T16:26:49;11.50;1.00
4058;DHT22;2044;48.692;9.020;2022-11-15T16:29:16;11.50;1.00
4058;DHT22;2044;48.692;9.020;2022-11-15T16:31:43;11.60;99.90
4058;DHT22;2044;48.692;9.020;2022-11-15T16:34:10;11.60;99.90
4058;DHT22;2044;48.692;9.020;2022-11-15T16:36:38;11.70;1.00
4058;DHT22;2044;48.692;9.020;2022-11-15T16:39:05;11.70;1.00
4058;DHT22;2044;48.692;9.020;2022-11-15T16:41:32;11.70;1.00
4058;DHT22;2044;48.692;9.020;2022-11-15T16:43:58;11.70;1.00
4058;DHT22;2044;48.692;9.020;2022-11-15T16:46:26;11.70;1.00
4058;DHT22;2044;48.692;9.020;2022-11-15T16:48:53;11.70;1.00
4058;DHT22;2044;48.692;9.020;2022-11-15T16:51:21;11.70;48.10
4058;DHT22;2044;48.692;9.020;2022-11-15T16:53:49;11.70;1.00
4058;DHT22;2044;48.692;9.020;2022-11-15T16:56:22;11.70;1.00
4058;DHT22;2044;48.692;9.020;2022-11-15T16:58:50;11.70;99.90
4058;DHT22;2044;48.692;9.020;2022-11-15T17:01:19;11.60;99.90
4058;DHT22;2044;48.692;9.020;2022-11-15T17:03:47;11.50;99.90
4058;DHT22;2044;48.692;9.020;2022-11-15T17:06:14;11.50;1.00
4058;DHT22;2044;48.692;9.020;2022-11-15T17:08:43;11.40;99.90